createdAt,value
2023-09-21T00:01:10.242Z,1.02
2023-09-21T00:03:37.941Z,1.10
2023-09-21T00:06:12.438Z,1.08
2023-09-21T00:08:38.932Z,1.58
2023-09-21T00:11:06.913Z,0.75
2023-09-21T00:13:33.802Z,1.40
2023-09-21T00:16:02.552Z,1.10
2023-09-21T00:18:30.249Z,1.35
2023-09-21T00:20:58.570Z,1.00
2023-09-21T00:23:26.410Z,1.20
2023-09-21T00:25:53.830Z,1.10
2023-09-21T00:28:20.570Z,1.25
2023-09-21T00:30:47.666Z,1.52
2023-09-21T00:33:14.384Z,0.90
2023-09-21T00:35:41.242Z,1.33
2023-09-21T00:38:11.495Z,1.15
2023-09-21T00:40:40.128Z,1.15
2023-09-21T00:43:09.751Z,1.05
2023-09-21T00:45:45.054Z,1.02
2023-09-21T00:48:11.877Z,1.13
2023-09-21T00:50:40.131Z,1.05
2023-09-21T00:53:08.050Z,1.25
2023-09-21T00:55:36.022Z,1.10
2023-09-21T00:58:03.581Z,1.55
2023-09-21T01:00:32.092Z,1.23
2023-09-21T01:03:03.519Z,0.70
2023-09-21T01:05:30.067Z,1.13
2023-09-21T01:07:59.444Z,1.13
2023-09-21T01:10:27.226Z,1.13
2023-09-21T01:12:53.729Z,1.10
2023-09-21T01:15:20.302Z,1.00
2023-09-21T01:17:46.830Z,1.10
2023-09-21T01:20:15.359Z,1.70
2023-09-21T01:22:51.247Z,1.15
2023-09-21T01:25:17.972Z,1.40
2023-09-21T01:27:44.396Z,1.52
2023-09-21T01:30:11.783Z,1.40
2023-09-21T01:32:39.204Z,1.00
2023-09-21T01:35:09.066Z,1.35
2023-09-21T01:37:35.509Z,1.00
2023-09-21T01:40:04.649Z,1.20
2023-09-21T01:42:32.421Z,1.15
2023-09-21T01:44:59.162Z,1.10
2023-09-21T01:47:25.971Z,1.27
2023-09-21T01:49:52.464Z,1.13
2023-09-21T01:52:19.021Z,1.10
2023-09-21T01:54:45.751Z,1.38
2023-09-21T01:57:12.258Z,1.30
2023-09-21T01:59:38.722Z,1.27
2023-09-21T02:02:05.310Z,1.02
2023-09-21T02:04:33.004Z,1.10
2023-09-21T02:06:59.462Z,1.10
2023-09-21T02:09:27.091Z,1.50
2023-09-21T02:11:53.576Z,1.20
2023-09-21T02:14:20.224Z,1.35
2023-09-21T02:16:46.955Z,1.00
2023-09-21T02:19:13.698Z,1.58
2023-09-21T02:21:40.065Z,1.20
2023-09-21T02:24:06.993Z,1.30
2023-09-21T02:26:33.398Z,1.15
2023-09-21T02:29:00.097Z,1.42
2023-09-21T02:31:26.866Z,1.20
2023-09-21T02:33:53.499Z,1.00
2023-09-21T02:36:20.061Z,1.10
2023-09-21T02:38:50.670Z,1.00
2023-09-21T02:43:43.904Z,0.93
2023-09-21T02:46:10.773Z,1.92
2023-09-21T02:48:37.314Z,1.13
2023-09-21T02:51:04.086Z,1.25
2023-09-21T02:53:33.297Z,1.00
2023-09-21T02:56:00.765Z,1.17
2023-09-21T02:58:27.180Z,1.00
2023-09-21T03:00:53.850Z,1.38
2023-09-21T03:03:21.928Z,1.05
2023-09-21T03:05:50.893Z,1.23
2023-09-21T03:08:25.787Z,1.45
2023-09-21T03:10:55.025Z,1.00
2023-09-21T03:13:22.132Z,1.15
2023-09-21T03:15:54.591Z,1.15
2023-09-21T03:18:22.743Z,1.25
2023-09-21T03:20:52.726Z,1.17
2023-09-21T03:23:19.323Z,1.23
2023-09-21T03:25:47.325Z,1.55
2023-09-21T03:28:21.106Z,1.25
2023-09-21T03:30:52.553Z,0.85
2023-09-21T03:33:21.022Z,1.42
2023-09-21T03:35:48.115Z,1.17
2023-09-21T03:38:14.750Z,1.38
2023-09-21T03:40:42.585Z,0.95
2023-09-21T03:43:10.535Z,1.20
2023-09-21T03:45:37.742Z,1.30
2023-09-21T03:48:04.736Z,1.30
2023-09-21T03:50:32.171Z,1.45
2023-09-21T03:52:59.933Z,1.20
2023-09-21T03:55:26.711Z,1.25
2023-09-21T03:57:54.337Z,1.58
2023-09-21T04:00:25.934Z,2.10
2023-09-21T04:02:55.904Z,1.42
2023-09-21T04:05:29.699Z,1.27
2023-09-21T04:07:56.283Z,1.38
2023-09-21T04:10:23.023Z,1.15
2023-09-21T04:12:50.098Z,0.80
2023-09-21T04:15:18.002Z,1.02
2023-09-21T04:17:44.514Z,1.20
2023-09-21T04:20:11.585Z,1.13
2023-09-21T04:22:42.387Z,1.05
2023-09-21T04:25:11.267Z,1.08
2023-09-21T04:28:04.170Z,1.40
2023-09-21T04:30:30.959Z,1.38
2023-09-21T04:32:57.540Z,1.60
2023-09-21T04:35:24.465Z,1.25
2023-09-21T04:37:51.641Z,1.10
2023-09-21T04:40:18.467Z,1.38
2023-09-21T04:42:55.514Z,1.48
2023-09-21T04:45:23.000Z,1.05
2023-09-21T04:47:49.775Z,1.70
2023-09-21T04:50:17.890Z,1.13
2023-09-21T04:52:45.985Z,1.40
2023-09-21T04:55:13.406Z,1.23
2023-09-21T04:57:39.914Z,1.67
2023-09-21T05:00:06.988Z,1.08
2023-09-21T05:02:33.929Z,2.00
2023-09-21T05:05:00.817Z,1.10
2023-09-21T05:07:27.345Z,1.23
2023-09-21T05:09:54.060Z,1.40
2023-09-21T05:12:20.676Z,1.40
2023-09-21T05:14:49.650Z,1.15
2023-09-21T05:17:18.917Z,1.20
2023-09-21T05:19:45.750Z,1.35
2023-09-21T05:22:12.373Z,1.15
2023-09-21T05:24:39.669Z,1.33
2023-09-21T05:27:06.908Z,2.17
2023-09-21T05:29:33.715Z,1.60
2023-09-21T05:32:00.688Z,1.75
2023-09-21T05:34:30.527Z,1.50
2023-09-21T05:36:58.304Z,1.83
2023-09-21T05:39:25.198Z,1.90
2023-09-21T05:41:52.375Z,1.40
2023-09-21T05:44:20.237Z,1.58
2023-09-21T05:46:46.796Z,1.35
2023-09-21T05:49:14.136Z,1.65
2023-09-21T05:51:40.732Z,1.20
2023-09-21T05:54:07.416Z,1.60
2023-09-21T05:56:36.100Z,1.80
2023-09-21T05:59:02.528Z,1.15
2023-09-21T06:01:29.217Z,1.20
2023-09-21T06:03:55.928Z,1.30
2023-09-21T06:06:23.094Z,1.40
2023-09-21T06:08:49.580Z,1.33
2023-09-21T06:11:17.413Z,1.40
2023-09-21T06:13:43.919Z,1.88
2023-09-21T06:16:10.488Z,1.25
2023-09-21T06:18:38.088Z,1.88
2023-09-21T06:21:04.675Z,1.80
2023-09-21T06:23:31.783Z,1.75
2023-09-21T06:25:58.258Z,1.58
2023-09-21T06:28:24.707Z,1.48
2023-09-21T06:30:51.350Z,1.50
2023-09-21T06:33:18.035Z,1.50
2023-09-21T06:35:49.811Z,1.60
2023-09-21T06:38:17.638Z,1.58
2023-09-21T06:40:44.789Z,1.52
2023-09-21T06:43:11.315Z,1.77
2023-09-21T06:45:39.074Z,1.73
2023-09-21T06:48:05.804Z,1.52
2023-09-21T06:50:32.606Z,1.60
2023-09-21T06:52:59.136Z,1.80
2023-09-21T06:55:25.946Z,1.40
2023-09-21T06:57:52.523Z,1.60
2023-09-21T07:00:19.000Z,1.70
2023-09-21T07:02:45.662Z,1.42
2023-09-21T07:05:12.353Z,1.50
2023-09-21T07:07:39.712Z,1.80
2023-09-21T07:10:06.790Z,2.25
2023-09-21T07:12:33.332Z,1.75
2023-09-21T07:14:59.822Z,1.60
2023-09-21T07:17:26.378Z,1.70
2023-09-21T07:19:53.119Z,1.45
2023-09-21T07:22:20.016Z,1.67
2023-09-21T07:24:46.753Z,2.00
2023-09-21T07:27:13.250Z,1.40
2023-09-21T07:29:39.792Z,1.92
2023-09-21T07:32:08.006Z,1.52
2023-09-21T07:34:38.540Z,1.83
2023-09-21T07:37:06.109Z,1.52
2023-09-21T07:39:32.696Z,1.30
2023-09-21T07:41:59.624Z,1.40
2023-09-21T07:44:27.496Z,1.48
2023-09-21T07:46:55.525Z,1.48
2023-09-21T07:49:22.942Z,1.38
2023-09-21T07:51:49.997Z,1.58
2023-09-21T07:54:16.762Z,1.48
2023-09-21T07:56:43.389Z,1.73
2023-09-21T07:59:09.940Z,1.33
2023-09-21T08:01:37.203Z,1.48
2023-09-21T08:04:05.674Z,1.80
2023-09-21T08:06:33.932Z,1.52
2023-09-21T08:09:05.505Z,1.33
2023-09-21T08:11:36.987Z,1.58
2023-09-21T08:14:06.272Z,1.20
2023-09-21T08:16:36.809Z,1.30
2023-09-21T08:21:29.975Z,1.27
2023-09-21T08:23:56.732Z,1.10
2023-09-21T08:26:23.940Z,1.40
2023-09-21T08:28:57.806Z,1.27
2023-09-21T08:31:24.684Z,1.08
2023-09-21T08:33:55.796Z,1.60
2023-09-21T08:36:22.621Z,1.20
2023-09-21T08:38:52.587Z,1.20
2023-09-21T08:41:19.631Z,1.42
2023-09-21T08:43:46.951Z,1.15
2023-09-21T08:46:14.495Z,1.20
2023-09-21T08:48:45.108Z,1.10
2023-09-21T08:51:20.056Z,1.23
2023-09-21T08:53:54.841Z,1.10
2023-09-21T08:56:25.215Z,0.98
2023-09-21T08:58:58.295Z,1.10
2023-09-21T09:01:26.959Z,1.05
2023-09-21T09:03:54.840Z,1.27
2023-09-21T09:06:24.244Z,1.00
2023-09-21T09:08:50.950Z,1.05
2023-09-21T09:11:39.912Z,1.20
2023-09-21T09:14:17.110Z,1.10
2023-09-21T09:16:44.641Z,1.10
2023-09-21T09:19:12.548Z,1.00
2023-09-21T09:21:39.897Z,0.80
2023-09-21T09:24:07.136Z,1.17
2023-09-21T09:26:33.900Z,0.80
2023-09-21T09:29:08.028Z,1.00
2023-09-21T09:31:37.948Z,0.90
2023-09-21T09:34:05.024Z,0.80
2023-09-21T09:36:33.375Z,0.88
2023-09-21T09:39:00.887Z,0.93
2023-09-21T09:41:32.502Z,0.75
2023-09-21T09:44:02.417Z,0.88
2023-09-21T09:46:30.468Z,1.20
2023-09-21T09:49:01.915Z,0.88
2023-09-21T09:51:36.949Z,1.40
2023-09-21T09:54:03.775Z,0.90
2023-09-21T09:56:30.849Z,0.90
2023-09-21T09:59:00.213Z,0.85
2023-09-21T10:01:27.957Z,0.97
2023-09-21T10:03:55.862Z,0.55
2023-09-21T10:06:25.877Z,0.60
2023-09-21T10:08:53.776Z,0.73
2023-09-21T10:11:21.271Z,0.65
2023-09-21T10:13:52.087Z,0.90
2023-09-21T10:16:20.056Z,0.77
2023-09-21T10:18:47.148Z,0.90
2023-09-21T10:21:26.856Z,1.27
2023-09-21T10:24:07.197Z,0.68
2023-09-21T10:29:02.892Z,1.00
2023-09-21T10:31:31.146Z,0.63
2023-09-21T10:34:00.323Z,0.90
2023-09-21T10:36:31.001Z,0.68
2023-09-21T10:39:09.474Z,0.80
2023-09-21T10:41:37.021Z,0.70
2023-09-21T10:44:06.397Z,0.80
2023-09-21T10:46:35.816Z,0.90
2023-09-21T10:49:07.687Z,0.90
2023-09-21T10:51:34.777Z,0.85
2023-09-21T10:54:02.088Z,0.70
2023-09-21T10:56:28.642Z,0.80
2023-09-21T10:58:55.364Z,0.80
2023-09-21T11:01:23.808Z,0.73
2023-09-21T11:03:50.687Z,0.88
2023-09-21T11:06:18.109Z,0.77
2023-09-21T11:08:48.456Z,0.68
2023-09-21T11:11:19.251Z,0.55
2023-09-21T11:13:55.274Z,0.75
2023-09-21T11:16:22.792Z,0.90
2023-09-21T11:18:49.812Z,0.90
2023-09-21T11:21:17.263Z,0.47
2023-09-21T11:23:44.097Z,0.80
2023-09-21T11:26:10.987Z,0.95
2023-09-21T11:28:41.061Z,0.95
2023-09-21T11:31:09.943Z,1.08
2023-09-21T11:33:37.194Z,1.00
2023-09-21T11:36:04.862Z,0.88
2023-09-21T11:38:37.231Z,1.00
2023-09-21T11:41:05.135Z,0.85
2023-09-21T11:43:32.037Z,0.70
2023-09-21T11:46:02.783Z,0.90
2023-09-21T11:48:29.694Z,0.90
2023-09-21T11:51:00.100Z,0.82
2023-09-21T11:53:27.194Z,1.00
2023-09-21T11:55:54.180Z,0.80
2023-09-21T11:58:21.592Z,0.88
2023-09-21T12:00:52.059Z,0.80
2023-09-21T12:03:22.008Z,0.80
2023-09-21T12:05:48.678Z,0.80
2023-09-21T12:08:16.505Z,0.57
2023-09-21T12:10:43.518Z,0.90
2023-09-21T12:13:12.553Z,0.90
2023-09-21T12:15:40.153Z,0.70
2023-09-21T12:18:07.529Z,0.50
2023-09-21T12:20:34.456Z,0.80
2023-09-21T12:23:01.034Z,0.82
2023-09-21T12:25:27.524Z,0.60
2023-09-21T12:27:55.330Z,0.80
2023-09-21T12:30:22.031Z,0.70
2023-09-21T12:32:48.681Z,0.80
2023-09-21T12:35:15.216Z,0.90
2023-09-21T12:37:41.817Z,0.63
2023-09-21T12:40:08.565Z,0.60
2023-09-21T12:42:38.601Z,0.80
2023-09-21T12:45:06.306Z,0.77
2023-09-21T12:47:33.775Z,0.52
2023-09-21T12:50:00.339Z,0.80
2023-09-21T12:52:27.173Z,0.57
2023-09-21T12:54:53.798Z,1.00
2023-09-21T12:57:20.595Z,0.90
2023-09-21T12:59:49.117Z,0.80
2023-09-21T13:02:15.955Z,0.65
2023-09-21T13:04:43.445Z,0.60
2023-09-21T13:07:10.247Z,0.60
2023-09-21T13:09:51.986Z,0.70
2023-09-21T13:12:20.297Z,0.68
2023-09-21T13:14:47.338Z,1.10
2023-09-21T13:17:14.036Z,0.60
2023-09-21T13:19:40.981Z,0.70
2023-09-21T13:22:07.385Z,0.82
2023-09-21T13:24:34.206Z,0.68
2023-09-21T13:27:01.480Z,0.57
2023-09-21T13:29:29.159Z,0.73
2023-09-21T13:31:55.745Z,0.85
2023-09-21T13:34:24.932Z,0.73
2023-09-21T13:36:51.569Z,1.30
2023-09-21T13:39:18.040Z,0.60
2023-09-21T13:41:50.136Z,0.52
2023-09-21T13:44:16.877Z,0.60
2023-09-21T13:46:43.421Z,0.70
2023-09-21T13:49:10.238Z,0.77
2023-09-21T13:51:36.829Z,0.70
2023-09-21T13:54:03.457Z,0.40
2023-09-21T13:56:33.277Z,0.60
2023-09-21T13:58:59.705Z,0.52
2023-09-21T14:01:28.409Z,0.70
2023-09-21T14:03:56.914Z,0.60
2023-09-21T14:06:23.672Z,0.60
2023-09-21T14:08:50.396Z,0.60
2023-09-21T14:11:19.093Z,0.40
2023-09-21T14:13:46.724Z,0.75
2023-09-21T14:16:13.845Z,0.60
2023-09-21T14:18:41.142Z,0.38
2023-09-21T14:21:08.856Z,0.45
2023-09-21T14:23:39.034Z,0.43
2023-09-21T14:28:33.944Z,0.68
2023-09-21T14:31:00.461Z,0.60
2023-09-21T14:33:27.754Z,0.75
2023-09-21T14:35:55.749Z,0.63
2023-09-21T14:38:22.541Z,0.50
2023-09-21T14:40:49.608Z,0.50
2023-09-21T14:43:18.868Z,0.57
2023-09-21T14:45:45.379Z,0.50
2023-09-21T14:48:13.240Z,0.63
2023-09-21T14:50:40.164Z,0.50
2023-09-21T14:53:06.970Z,0.38
2023-09-21T14:55:33.741Z,0.95
2023-09-21T14:58:01.249Z,0.43
2023-09-21T15:00:27.893Z,0.50
2023-09-21T15:02:54.998Z,0.55
2023-09-21T15:05:21.629Z,0.50
2023-09-21T15:07:56.086Z,0.40
2023-09-21T15:10:34.736Z,0.60
2023-09-21T15:13:01.509Z,0.73
2023-09-21T15:15:29.636Z,0.60
2023-09-21T15:17:56.126Z,0.60
2023-09-21T15:20:22.601Z,1.00
2023-09-21T15:22:49.366Z,0.68
2023-09-21T15:25:21.464Z,0.98
2023-09-21T15:27:48.396Z,0.75
2023-09-21T15:30:15.364Z,1.08
2023-09-21T15:32:45.163Z,0.52
2023-09-21T15:35:11.601Z,0.50
2023-09-21T15:37:40.868Z,0.80
2023-09-21T15:40:09.000Z,0.70
2023-09-21T15:42:38.105Z,0.93
2023-09-21T15:45:06.142Z,1.35
2023-09-21T15:47:32.643Z,1.00
2023-09-21T15:49:59.105Z,0.90
2023-09-21T15:52:26.920Z,1.23
2023-09-21T15:54:57.841Z,1.05
2023-09-21T15:57:24.419Z,0.80
2023-09-21T15:59:51.304Z,0.60
2023-09-21T16:02:18.415Z,1.00
2023-09-21T16:04:45.318Z,0.95
2023-09-21T16:07:12.717Z,1.23
2023-09-21T16:09:39.713Z,1.00
2023-09-21T16:12:07.274Z,1.40
2023-09-21T16:14:34.032Z,4.25
2023-09-21T16:17:06.152Z,3.72
2023-09-21T16:19:32.617Z,2.20
2023-09-21T16:22:00.652Z,1.63
2023-09-21T16:24:27.520Z,0.80
2023-09-21T16:26:54.080Z,0.93
2023-09-21T16:29:20.683Z,1.10
2023-09-21T16:31:47.402Z,1.08
2023-09-21T16:34:14.068Z,1.40
2023-09-21T16:36:40.544Z,1.08
2023-09-21T16:39:07.266Z,0.73
2023-09-21T16:41:34.103Z,0.80
2023-09-21T16:44:00.481Z,0.82
2023-09-21T16:48:57.911Z,0.57
2023-09-21T16:51:24.865Z,0.90
2023-09-21T16:53:51.334Z,0.88
2023-09-21T16:56:18.183Z,0.73
2023-09-21T16:58:44.793Z,0.70
2023-09-21T17:01:11.590Z,1.02
2023-09-21T17:03:39.622Z,0.90
2023-09-21T17:06:08.632Z,0.77
2023-09-21T17:08:35.014Z,0.90
2023-09-21T17:11:02.559Z,1.30
2023-09-21T17:13:29.362Z,1.05
2023-09-21T17:15:57.266Z,1.00
2023-09-21T17:18:26.903Z,0.77
2023-09-21T17:20:54.301Z,1.10
2023-09-21T17:23:21.068Z,1.15
2023-09-21T17:25:48.030Z,1.00
2023-09-21T17:28:14.645Z,1.02
2023-09-21T17:30:41.511Z,0.93
2023-09-21T17:33:08.685Z,0.93
2023-09-21T17:35:37.069Z,0.90
2023-09-21T17:38:04.658Z,1.27
2023-09-21T17:40:31.391Z,1.83
2023-09-21T17:42:58.311Z,1.05
2023-09-21T17:45:25.257Z,1.08
2023-09-21T17:47:51.769Z,0.98
2023-09-21T17:50:22.723Z,1.70
2023-09-21T17:52:49.794Z,1.42
2023-09-21T17:55:18.195Z,1.63
2023-09-21T17:57:45.452Z,1.02
2023-09-21T18:00:18.054Z,1.10
2023-09-21T18:02:44.947Z,0.88
2023-09-21T18:05:14.533Z,1.08
2023-09-21T18:07:44.208Z,1.10
2023-09-21T18:10:10.981Z,1.08
2023-09-21T18:12:39.310Z,1.30
2023-09-21T18:15:10.458Z,1.25
2023-09-21T18:17:40.726Z,1.13
2023-09-21T18:20:07.891Z,1.20
2023-09-21T18:22:34.310Z,0.75
2023-09-21T18:25:00.734Z,0.95
2023-09-21T18:27:27.574Z,1.38
2023-09-21T18:29:54.610Z,1.23
2023-09-21T18:32:24.214Z,1.23
2023-09-21T18:34:58.024Z,1.40
2023-09-21T18:37:24.662Z,1.52
2023-09-21T18:39:51.491Z,1.15
2023-09-21T18:42:18.036Z,1.10
2023-09-21T18:44:44.622Z,1.40
2023-09-21T18:47:11.631Z,1.20
2023-09-21T18:49:41.844Z,1.30
2023-09-21T18:52:08.372Z,1.20
2023-09-21T18:54:34.895Z,1.10
2023-09-21T18:57:03.115Z,1.45
2023-09-21T18:59:35.390Z,1.70
2023-09-21T19:02:02.537Z,1.25
2023-09-21T19:04:29.840Z,1.85
2023-09-21T19:06:56.300Z,1.30
2023-09-21T19:09:22.879Z,0.80
2023-09-21T19:11:50.645Z,0.80
2023-09-21T19:14:17.135Z,1.10
2023-09-21T19:16:45.337Z,0.90
2023-09-21T19:19:11.807Z,0.70
2023-09-21T19:21:38.853Z,0.50
2023-09-21T19:24:07.174Z,0.55
2023-09-21T19:26:33.984Z,0.60
2023-09-21T19:29:01.793Z,0.98
2023-09-21T19:31:28.465Z,0.40
2023-09-21T19:33:56.162Z,1.15
2023-09-21T19:36:22.984Z,0.40
2023-09-21T19:38:49.793Z,0.55
2023-09-21T19:41:18.523Z,0.30
2023-09-21T19:43:46.018Z,0.38
2023-09-21T19:46:12.950Z,0.47
2023-09-21T19:48:39.588Z,0.20
2023-09-21T19:51:06.917Z,0.15
2023-09-21T19:53:33.644Z,0.25
2023-09-21T19:56:00.570Z,0.20
2023-09-21T19:58:31.304Z,0.20
2023-09-21T20:00:57.704Z,0.17
2023-09-21T20:03:25.413Z,0.22
2023-09-21T20:05:51.972Z,0.13
2023-09-21T20:08:18.504Z,0.15
2023-09-21T20:10:44.977Z,0.20
2023-09-21T20:13:11.513Z,0.13
2023-09-21T20:15:37.975Z,0.30
2023-09-21T20:18:05.553Z,0.47
2023-09-21T20:20:31.958Z,0.57
2023-09-21T20:22:58.634Z,0.22
2023-09-21T20:25:26.071Z,0.30
2023-09-21T20:27:54.504Z,0.50
2023-09-21T20:30:21.216Z,0.15
2023-09-21T20:32:48.217Z,0.15
2023-09-21T20:35:14.905Z,0.30
2023-09-21T20:37:41.376Z,0.20
2023-09-21T20:40:08.435Z,0.30
2023-09-21T20:42:34.966Z,0.20
2023-09-21T20:45:01.839Z,0.20
2023-09-21T20:47:28.363Z,0.20
2023-09-21T20:49:54.909Z,0.38
2023-09-21T20:52:21.535Z,0.20
2023-09-21T20:54:47.999Z,0.20
2023-09-21T20:57:14.556Z,0.20
2023-09-21T20:59:41.037Z,0.20
2023-09-21T21:02:07.595Z,0.25
2023-09-21T21:04:36.692Z,0.10
2023-09-21T21:07:03.220Z,0.25
2023-09-21T21:09:29.978Z,0.10
2023-09-21T21:11:56.438Z,0.20
2023-09-21T21:14:22.834Z,0.55
2023-09-21T21:16:49.564Z,0.45
2023-09-21T21:19:16.601Z,0.20
2023-09-21T21:21:43.364Z,0.20
2023-09-21T21:24:10.068Z,0.20
2023-09-21T21:26:36.468Z,0.30
2023-09-21T21:29:02.955Z,0.22
2023-09-21T21:31:30.075Z,0.10
2023-09-21T21:33:56.629Z,0.25
2023-09-21T21:36:23.585Z,0.20
2023-09-21T21:38:50.063Z,0.20
2023-09-21T21:41:16.845Z,0.30
2023-09-21T21:43:45.163Z,0.35
2023-09-21T21:46:15.504Z,0.20
2023-09-21T21:48:42.026Z,0.10
2023-09-21T21:51:08.726Z,0.20
2023-09-21T21:53:35.377Z,0.20
2023-09-21T21:56:01.799Z,0.15
2023-09-21T21:58:28.533Z,0.22
2023-09-21T22:00:55.293Z,0.30
2023-09-21T22:03:21.869Z,0.10
2023-09-21T22:05:49.497Z,0.20
2023-09-21T22:08:17.200Z,0.13
2023-09-21T22:10:43.880Z,0.20
2023-09-21T22:13:11.182Z,0.25
2023-09-21T22:15:38.168Z,0.10
2023-09-21T22:18:05.833Z,0.32
2023-09-21T22:20:32.480Z,0.10
2023-09-21T22:22:58.949Z,0.10
2023-09-21T22:25:28.307Z,0.10
2023-09-21T22:27:55.615Z,0.20
2023-09-21T22:30:22.369Z,0.00
2023-09-21T22:32:49.090Z,0.10
2023-09-21T22:35:15.810Z,0.10
2023-09-21T22:37:43.542Z,0.20
2023-09-21T22:40:10.921Z,0.20
2023-09-21T22:42:48.203Z,0.15
2023-09-21T22:45:16.812Z,0.35
2023-09-21T22:47:44.570Z,0.00
2023-09-21T22:50:12.800Z,0.10
2023-09-21T22:52:39.327Z,0.22
2023-09-21T22:55:06.061Z,0.10
2023-09-21T22:57:41.672Z,0.10
2023-09-21T23:00:08.744Z,0.20
2023-09-21T23:02:35.188Z,0.20
2023-09-21T23:05:01.645Z,0.08
2023-09-21T23:07:28.196Z,0.20
2023-09-21T23:09:55.980Z,0.20
2023-09-21T23:12:22.986Z,0.45
2023-09-21T23:14:49.359Z,0.20
2023-09-21T23:17:15.761Z,0.40
2023-09-21T23:19:42.415Z,0.13
2023-09-21T23:22:08.869Z,0.55
2023-09-21T23:27:03.444Z,0.20
2023-09-21T23:29:30.278Z,0.20
2023-09-21T23:31:56.660Z,0.13
2023-09-21T23:34:23.412Z,0.38
2023-09-21T23:36:50.105Z,0.80
2023-09-21T23:39:16.833Z,0.40
2023-09-21T23:41:43.278Z,0.40
2023-09-21T23:44:09.689Z,0.20
2023-09-21T23:46:36.366Z,0.10
2023-09-21T23:49:02.954Z,0.20
2023-09-21T23:51:29.315Z,0.20
2023-09-21T23:53:55.932Z,0.63
2023-09-21T23:56:22.413Z,0.30
2023-09-21T23:58:48.960Z,0.30
